Terminal Aerodrome Forecast
Issued by NWS

Home | Current Version | Previous Version | Text Only | Print | Product List | Glossary On
Versions: 1 2 3 4 5 6 7 8 9 10 11 12 13 14 15 16 17 18 19 20 21 22 23 24 25
000
FTUS42 KGSP 212338
TAFAND
TAF
KAND 212338Z 2200/2224 VRB04KT P6SM SCT040
     FM220800 17006KT P6SM OVC022
     FM221100 19004KT 1/2SM FG OVC004
     FM221500 19006KT P6SM BKN005
     FM222200 19005KT P6SM BKN035=

USA.gov is the U.S. government's official web portal to all federal, state and local government web resources and services.